sensor_id;sensor_type;location;lat;lon;timestamp;temperature;humidity
45313;SHT31;68267;51.540;5.854;2023-04-03T00:06:07;0.9;87.1
45313;SHT31;68267;51.540;5.854;2023-04-03T00:19:26;0.8;87.0
45313;SHT31;68267;51.540;5.854;2023-04-03T00:32:46;0.7;88.3
45313;SHT31;68267;51.540;5.854;2023-04-03T00:46:05;0.6;87.6
45313;SHT31;68267;51.540;5.854;2023-04-03T00:59:25;0.6;88.2
45313;SHT31;68267;51.540;5.854;2023-04-03T01:12:45;0.6;88.1
45313;SHT31;68267;51.540;5.854;2023-04-03T01:26:04;0.5;88.0
45313;SHT31;68267;51.540;5.854;2023-04-03T01:39:24;0.5;87.9
45313;SHT31;68267;51.540;5.854;2023-04-03T01:52:44;0.4;87.9
45313;SHT31;68267;51.540;5.854;2023-04-03T02:06:03;0.4;88.2
45313;SHT31;68267;51.540;5.854;2023-04-03T02:19:23;0.4;87.9
45313;SHT31;68267;51.540;5.854;2023-04-03T02:32:42;0.5;88.6
45313;SHT31;68267;51.540;5.854;2023-04-03T02:46:02;0.7;90.3
45313;SHT31;68267;51.540;5.854;2023-04-03T02:59:22;0.9;91.1
45313;SHT31;68267;51.540;5.854;2023-04-03T03:12:41;1.0;90.4
45313;SHT31;68267;51.540;5.854;2023-04-03T03:26:01;1.0;90.3
45313;SHT31;68267;51.540;5.854;2023-04-03T03:39:21;0.9;89.4
45313;SHT31;68267;51.540;5.854;2023-04-03T03:52:40;0.9;89.3
45313;SHT31;68267;51.540;5.854;2023-04-03T04:06:00;0.7;88.9
45313;SHT31;68267;51.540;5.854;2023-04-03T04:19:20;0.5;88.6
45313;SHT31;68267;51.540;5.854;2023-04-03T04:32:39;0.4;88.4
45313;SHT31;68267;51.540;5.854;2023-04-03T04:45:59;0.2;88.3
45313;SHT31;68267;51.540;5.854;2023-04-03T04:59:18;0.1;88.7
45313;SHT31;68267;51.540;5.854;2023-04-03T05:12:38;0.3;89.7
45313;SHT31;68267;51.540;5.854;2023-04-03T05:25:58;0.5;89.7
45313;SHT31;68267;51.540;5.854;2023-04-03T05:39:17;0.6;89.2
45313;SHT31;68267;51.540;5.854;2023-04-03T05:52:37;0.7;88.8
45313;SHT31;68267;51.540;5.854;2023-04-03T06:05:56;1.1;88.2
45313;SHT31;68267;51.540;5.854;2023-04-03T06:19:16;1.5;87.4
45313;SHT31;68267;51.540;5.854;2023-04-03T06:32:36;1.9;85.5
45313;SHT31;68267;51.540;5.854;2023-04-03T06:45:55;2.2;84.0
45313;SHT31;68267;51.540;5.854;2023-04-03T06:59:15;3.2;81.0
45313;SHT31;68267;51.540;5.854;2023-04-03T07:12:35;3.8;77.8
45313;SHT31;68267;51.540;5.854;2023-04-03T07:25:54;4.4;74.6
45313;SHT31;68267;51.540;5.854;2023-04-03T07:39:14;5.2;73.2
45313;SHT31;68267;51.540;5.854;2023-04-03T07:52:33;5.0;71.6
45313;SHT31;68267;51.540;5.854;2023-04-03T08:05:53;5.8;67.1
45313;SHT31;68267;51.540;5.854;2023-04-03T08:19:13;6.0;65.7
45313;SHT31;68267;51.540;5.854;2023-04-03T08:32:32;6.6;62.9
45313;SHT31;68267;51.540;5.854;2023-04-03T08:45:52;6.5;62.9
45313;SHT31;68267;51.540;5.854;2023-04-03T08:59:11;6.8;59.5
45313;SHT31;68267;51.540;5.854;2023-04-03T09:12:31;7.3;58.2
45313;SHT31;68267;51.540;5.854;2023-04-03T09:25:51;7.4;53.9
45313;SHT31;68267;51.540;5.854;2023-04-03T09:39:10;7.3;48.8
45313;SHT31;68267;51.540;5.854;2023-04-03T09:52:30;7.8;48.0
45313;SHT31;68267;51.540;5.854;2023-04-03T10:05:50;7.9;42.3
45313;SHT31;68267;51.540;5.854;2023-04-03T10:19:09;7.8;44.9
45313;SHT31;68267;51.540;5.854;2023-04-03T10:32:29;8.0;43.4
45313;SHT31;68267;51.540;5.854;2023-04-03T10:45:49;8.1;41.8
45313;SHT31;68267;51.540;5.854;2023-04-03T10:59:08;8.5;37.3
45313;SHT31;68267;51.540;5.854;2023-04-03T11:12:28;8.4;37.8
45313;SHT31;68267;51.540;5.854;2023-04-03T11:25:47;9.2;41.1
45313;SHT31;68267;51.540;5.854;2023-04-03T11:39:07;9.3;38.8
45313;SHT31;68267;51.540;5.854;2023-04-03T11:52:27;9.5;45.2
45313;SHT31;68267;51.540;5.854;2023-04-03T12:05:46;9.2;46.7
45313;SHT31;68267;51.540;5.854;2023-04-03T12:19:06;8.7;44.1
45313;SHT31;68267;51.540;5.854;2023-04-03T12:32:26;9.6;41.5
45313;SHT31;68267;51.540;5.854;2023-04-03T12:45:45;9.7;42.9
45313;SHT31;68267;51.540;5.854;2023-04-03T12:59:05;9.6;42.7
45313;SHT31;68267;51.540;5.854;2023-04-03T13:12:24;9.5;45.3
45313;SHT31;68267;51.540;5.854;2023-04-03T13:25:44;9.7;43.4
45313;SHT31;68267;51.540;5.854;2023-04-03T13:39:04;10.2;41.8
45313;SHT31;68267;51.540;5.854;2023-04-03T13:52:23;10.2;41.4
45313;SHT31;68267;51.540;5.854;2023-04-03T14:05:43;9.5;44.3
45313;SHT31;68267;51.540;5.854;2023-04-03T14:19:03;9.9;42.5
45313;SHT31;68267;51.540;5.854;2023-04-03T14:32:22;10.3;45.1
45313;SHT31;68267;51.540;5.854;2023-04-03T14:45:42;9.8;42.0
45313;SHT31;68267;51.540;5.854;2023-04-03T14:59:02;9.7;42.6
45313;SHT31;68267;51.540;5.854;2023-04-03T15:12:21;9.9;41.0
45313;SHT31;68267;51.540;5.854;2023-04-03T15:25:41;9.6;42.4
45313;SHT31;68267;51.540;5.854;2023-04-03T15:39:00;9.7;44.1
45313;SHT31;68267;51.540;5.854;2023-04-03T15:52:20;9.5;45.6
45313;SHT31;68267;51.540;5.854;2023-04-03T16:05:40;9.8;42.4
45313;SHT31;68267;51.540;5.854;2023-04-03T16:18:59;9.4;45.3
45313;SHT31;68267;51.540;5.854;2023-04-03T16:32:19;9.1;46.5
45313;SHT31;68267;51.540;5.854;2023-04-03T16:45:39;8.8;46.5
45313;SHT31;68267;51.540;5.854;2023-04-03T16:58:58;8.6;46.5
45313;SHT31;68267;51.540;5.854;2023-04-03T17:12:18;8.5;50.4
45313;SHT31;68267;51.540;5.854;2023-04-03T17:25:37;8.0;50.4
45313;SHT31;68267;51.540;5.854;2023-04-03T17:38:57;7.5;50.6
45313;SHT31;68267;51.540;5.854;2023-04-03T17:52:17;7.5;51.9
45313;SHT31;68267;51.540;5.854;2023-04-03T18:05:36;7.0;53.9
45313;SHT31;68267;51.540;5.854;2023-04-03T18:18:56;6.5;56.3
45313;SHT31;68267;51.540;5.854;2023-04-03T18:32:16;6.0;56.8
45313;SHT31;68267;51.540;5.854;2023-04-03T18:45:35;5.8;58.7
45313;SHT31;68267;51.540;5.854;2023-04-03T18:58:55;5.5;59.8
45313;SHT31;68267;51.540;5.854;2023-04-03T19:12:14;5.2;61.1
45313;SHT31;68267;51.540;5.854;2023-04-03T19:25:34;4.9;62.9
45313;SHT31;68267;51.540;5.854;2023-04-03T19:38:54;4.6;64.1
45313;SHT31;68267;51.540;5.854;2023-04-03T19:52:13;4.2;65.3
45313;SHT31;68267;51.540;5.854;2023-04-03T20:05:33;3.6;67.8
45313;SHT31;68267;51.540;5.854;2023-04-03T20:18:53;3.2;70.9
45313;SHT31;68267;51.540;5.854;2023-04-03T20:32:12;2.9;70.6
45313;SHT31;68267;51.540;5.854;2023-04-03T20:45:32;2.8;72.5
45313;SHT31;68267;51.540;5.854;2023-04-03T20:58:51;2.6;72.3
45313;SHT31;68267;51.540;5.854;2023-04-03T21:12:11;2.4;73.1
45313;SHT31;68267;51.540;5.854;2023-04-03T21:25:31;2.1;72.7
45313;SHT31;68267;51.540;5.854;2023-04-03T21:38:50;2.0;75.6
45313;SHT31;68267;51.540;5.854;2023-04-03T21:52:10;1.9;75.2
45313;SHT31;68267;51.540;5.854;2023-04-03T22:05:30;1.7;75.8
45313;SHT31;68267;51.540;5.854;2023-04-03T22:18:49;1.6;75.1
45313;SHT31;68267;51.540;5.854;2023-04-03T22:32:09;1.4;75.2
45313;SHT31;68267;51.540;5.854;2023-04-03T22:45:29;1.1;76.0
45313;SHT31;68267;51.540;5.854;2023-04-03T22:58:49;0.9;76.3
45313;SHT31;68267;51.540;5.854;2023-04-03T23:12:08;0.8;77.7
45313;SHT31;68267;51.540;5.854;2023-04-03T23:25:28;0.6;77.4
45313;SHT31;68267;51.540;5.854;2023-04-03T23:38:47;0.7;77.9
45313;SHT31;68267;51.540;5.854;2023-04-03T23:52:07;0.6;77.4
